Time;durP1;ratioP1;P1;durP2;ratioP2;P2;SDS_P1;SDS_P2;PMS_P1;PMS_P2;Temp;Humidity;BMP_temperature;BMP_pressure;BME280_temperature;BME280_humidity;BME280_pressure;Samples;Min_cycle;Max_cycle;Signal;HPM_P1;HPM_P2
2023/08/06 14:46:30;;;;;;;4.82;3.20;;;23.70;85.60;;;;;;5092740;27;20371;-57
2023/08/06 14:48:56;;;;;;;2.47;1.67;;;23.30;86.50;;;;;;5079067;28;20024;-62
2023/08/06 14:51:22;;;;;;;1.40;1.00;;;23.20;86.90;;;;;;5041071;22;20142;-68
2023/08/06 14:53:47;;;;;;;1.92;0.90;;;23.20;87.40;;;;;;4964754;28;20026;-69
2023/08/06 14:56:13;;;;;;;2.35;1.73;;;23.20;87.60;;;;;;4965638;28;20031;-69
2023/08/06 14:58:38;;;;;;;2.00;0.82;;;23.40;86.90;;;;;;4954376;28;20161;-68
2023/08/06 15:01:04;;;;;;;1.20;0.70;;;23.70;86.40;;;;;;4948322;28;20027;-70
2023/08/06 15:03:31;;;;;;;1.35;1.02;;;23.80;84.90;;;;;;4947718;28;20051;-68
2023/08/06 15:05:56;;;;;;;2.28;0.52;;;23.80;84.90;;;;;;4946553;28;20406;-68
2023/08/06 15:08:22;;;;;;;3.05;1.27;;;23.70;85.40;;;;;;4943747;28;20035;-67
2023/08/06 15:10:52;;;;;;;1.63;0.77;;;23.60;85.70;;;;;;4947745;28;20486;-68
2023/08/06 15:13:18;;;;;;;1.23;0.95;;;23.50;85.30;;;;;;4946581;28;20039;-69
2023/08/06 15:15:45;;;;;;;1.60;1.35;;;23.50;85.30;;;;;;4947251;28;20121;-69
2023/08/06 15:18:11;;;;;;;30.60;22.23;;;23.40;86.10;;;;;;4943674;28;20459;-69
2023/08/06 15:20:37;;;;;;;22.60;16.88;;;23.20;87.10;;;;;;4947141;28;20035;-69
2023/08/06 15:23:02;;;;;;;3.90;2.45;;;23.00;87.80;;;;;;4947229;28;20024;-69
2023/08/06 15:25:28;;;;;;;4.50;1.48;;;22.90;88.70;;;;;;4945721;28;20031;-68
2023/08/06 15:27:53;;;;;;;1.98;1.50;;;22.90;89.40;;;;;;4948109;28;20106;-68
2023/08/06 15:30:20;;;;;;;3.22;2.88;;;22.80;89.20;;;;;;4945331;28;20122;-68
2023/08/06 15:32:46;;;;;;;2.63;1.88;;;22.70;89.50;;;;;;4947147;28;20493;-69
2023/08/06 15:35:12;;;;;;;5.03;3.40;;;22.60;89.10;;;;;;4946223;28;20039;-68
2023/08/06 15:37:38;;;;;;;2.45;2.25;;;22.50;89.60;;;;;;4946660;28;20032;-68
2023/08/06 15:40:05;;;;;;;3.42;2.33;;;22.50;89.10;;;;;;4945575;28;20028;-69
2023/08/06 15:42:30;;;;;;;2.78;1.20;;;22.50;89.30;;;;;;4948891;28;20032;-68
2023/08/06 15:44:56;;;;;;;2.10;1.75;;;22.50;89.70;;;;;;4947983;28;20114;-69
2023/08/06 15:47:22;;;;;;;2.03;1.42;;;22.50;89.80;;;;;;4936591;28;20044;-68
2023/08/06 15:49:47;;;;;;;1.52;1.42;;;22.50;90.00;;;;;;4933348;28;20090;-68
2023/08/06 15:52:13;;;;;;;1.75;1.48;;;22.40;90.20;;;;;;4931567;28;20031;-68
2023/08/06 15:54:38;;;;;;;1.67;1.30;;;22.30;90.40;;;;;;4932388;28;20040;-68
2023/08/06 15:57:04;;;;;;;2.25;1.35;;;22.30;90.60;;;;;;4938101;28;20034;-68
2023/08/06 15:59:31;;;;;;;16.25;11.98;;;22.30;90.50;;;;;;4963090;28;20031;-69
2023/08/06 16:01:58;;;;;;;15.52;12.75;;;22.20;90.50;;;;;;4933536;28;20040;-68
2023/08/06 16:04:25;;;;;;;4.53;2.78;;;22.10;90.60;;;;;;4932805;28;20033;-68
2023/08/06 16:06:51;;;;;;;2.78;1.48;;;22.00;91.00;;;;;;4932655;28;20074;-68
2023/08/06 16:09:17;;;;;;;3.17;1.48;;;22.10;91.00;;;;;;4933130;28;20480;-69
2023/08/06 16:11:44;;;;;;;2.05;1.48;;;22.10;91.30;;;;;;4934476;28;20081;-69
2023/08/06 16:14:10;;;;;;;1.27;1.10;;;22.00;91.00;;;;;;4933533;28;20055;-68
2023/08/06 16:16:35;;;;;;;2.63;1.83;;;21.90;91.20;;;;;;4938454;28;20035;-68
2023/08/06 16:19:02;;;;;;;3.35;1.40;;;21.90;91.30;;;;;;4932423;28;20099;-72
2023/08/06 16:21:28;;;;;;;2.88;1.20;;;21.90;91.50;;;;;;4931072;28;20024;-72
2023/08/06 16:23:53;;;;;;;3.58;1.25;;;21.90;91.30;;;;;;4932369;28;20401;-73
2023/08/06 16:26:19;;;;;;;1.30;1.13;;;22.10;90.90;;;;;;4925925;28;20016;-71
2023/08/06 16:28:45;;;;;;;3.22;1.27;;;22.20;90.70;;;;;;4931465;28;20039;-71
2023/08/06 16:31:10;;;;;;;2.42;1.65;;;22.20;90.60;;;;;;4929875;28;20028;-69
2023/08/06 16:33:39;;;;;;;9.30;7.47;;;22.20;90.50;;;;;;4931971;28;20067;-70
2023/08/06 16:36:05;;;;;;;11.60;7.32;;;22.30;90.40;;;;;;4932875;28;20031;-72
2023/08/06 16:38:31;;;;;;;4.13;3.50;;;22.30;90.20;;;;;;4932772;29;20035;-72
2023/08/06 16:40:57;;;;;;;1.85;1.60;;;22.40;89.80;;;;;;4932936;28;20028;-72
2023/08/06 16:43:23;;;;;;;1.55;1.45;;;22.30;90.10;;;;;;4932729;28;20442;-73
2023/08/06 16:45:49;;;;;;;2.03;1.20;;;22.30;89.90;;;;;;4932348;29;20118;-69
2023/08/06 16:48:15;;;;;;;2.15;1.33;;;22.30;90.00;;;;;;4932927;28;20111;-70
2023/08/06 16:50:40;;;;;;;1.70;1.60;;;22.20;90.20;;;;;;4931047;28;20138;-69
2023/08/06 16:53:07;;;;;;;2.60;1.13;;;22.10;89.90;;;;;;4932023;28;20032;-70
2023/08/06 16:55:33;;;;;;;2.33;1.60;;;22.10;90.00;;;;;;4932108;28;20032;-70
2023/08/06 16:57:58;;;;;;;1.58;1.30;;;22.00;90.30;;;;;;4931012;28;20034;-70
2023/08/06 17:00:24;;;;;;;1.90;1.45;;;21.90;90.40;;;;;;4932343;29;20056;-70
2023/08/06 17:02:49;;;;;;;1.92;1.33;;;21.80;90.30;;;;;;4929158;28;20031;-69
2023/08/06 17:05:15;;;;;;;2.15;1.38;;;21.80;90.50;;;;;;5413691;23;20515;-71
2023/08/06 17:07:43;;;;;;;5.53;1.20;;;21.70;90.40;;;;;;4953363;28;20510;-72
2023/08/06 17:10:09;;;;;;;4.30;1.77;;;21.60;90.50;;;;;;4948711;28;20035;-72
2023/08/06 17:12:35;;;;;;;10.57;1.95;;;21.60;90.40;;;;;;4942290;28;20028;-72
2023/08/06 17:15:01;;;;;;;4.07;1.63;;;21.50;90.10;;;;;;4946231;28;20489;-72
2023/08/06 17:17:27;;;;;;;2.50;1.33;;;21.50;90.20;;;;;;4948356;28;20055;-72
2023/08/06 17:19:52;;;;;;;2.33;1.58;;;21.40;90.30;;;;;;4950608;28;20080;-72
2023/08/06 17:22:18;;;;;;;2.35;1.52;;;21.40;90.20;;;;;;4949460;28;20092;-72
2023/08/06 17:24:43;;;;;;;1.67;1.33;;;21.30;90.50;;;;;;4946709;28;20063;-72
2023/08/06 17:27:09;;;;;;;3.88;1.20;;;21.30;90.50;;;;;;4948526;28;20073;-72
2023/08/06 17:29:34;;;;;;;4.22;2.70;;;21.30;90.50;;;;;;4966122;28;20488;-72
2023/08/06 17:32:00;;;;;;;1.50;1.25;;;21.30;90.50;;;;;;4952938;28;20027;-72
2023/08/06 17:34:27;;;;;;;6.88;3.85;;;21.40;90.40;;;;;;4938148;28;20519;-72
2023/08/06 17:36:53;;;;;;;13.45;8.88;;;21.50;90.50;;;;;;4962288;28;20019;-72
2023/08/06 17:39:18;;;;;;;7.70;6.55;;;21.40;91.20;;;;;;4944962;28;20036;-71
2023/08/06 17:41:44;;;;;;;3.90;2.75;;;21.40;91.70;;;;;;4945194;28;20054;-69
2023/08/06 17:44:10;;;;;;;4.25;3.25;;;21.30;92.30;;;;;;4941570;28;20473;-71
2023/08/06 17:46:36;;;;;;;9.23;6.30;;;21.20;92.80;;;;;;4951420;28;20031;-72
2023/08/06 17:49:02;;;;;;;19.10;10.93;;;21.10;92.80;;;;;;4940529;28;20093;-72
2023/08/06 17:51:27;;;;;;;12.90;7.80;;;21.00;93.20;;;;;;4949667;28;20085;-73
2023/08/06 17:53:53;;;;;;;8.43;6.70;;;20.90;93.30;;;;;;4947465;28;20126;-72
2023/08/06 17:56:18;;;;;;;13.52;7.72;;;20.90;94.00;;;;;;4955360;28;20023;-72
2023/08/06 17:58:44;;;;;;;5.10;3.88;;;20.80;94.00;;;;;;4944793;28;20441;-72
2023/08/06 18:01:09;;;;;;;4.07;3.42;;;20.70;94.20;;;;;;4942854;28;20051;-73
2023/08/06 18:03:35;;;;;;;2.13;1.92;;;20.70;94.60;;;;;;4947386;28;20023;-72
2023/08/06 18:06:00;;;;;;;2.28;1.10;;;20.70;94.70;;;;;;4944760;28;20044;-72
2023/08/06 18:08:26;;;;;;;3.45;2.00;;;20.70;95.20;;;;;;4944665;28;20035;-74
2023/08/06 18:10:52;;;;;;;2.20;2.00;;;20.60;95.40;;;;;;4947845;28;20039;-73
2023/08/06 18:13:18;;;;;;;4.07;1.98;;;20.50;95.40;;;;;;4946399;28;20089;-72
2023/08/06 18:15:44;;;;;;;4.22;2.47;;;20.60;95.60;;;;;;4944297;28;20393;-72
2023/08/06 18:18:10;;;;;;;2.22;1.85;;;20.60;95.70;;;;;;4946590;28;20023;-70
2023/08/06 18:20:36;;;;;;;1.85;1.20;;;20.60;95.90;;;;;;4962460;28;20031;-71
2023/08/06 18:23:02;;;;;;;3.47;2.55;;;20.60;95.90;;;;;;4946331;28;20031;-72
2023/08/06 18:25:28;;;;;;;5.15;3.63;;;20.50;96.10;;;;;;4947758;28;20023;-72
2023/08/06 18:27:54;;;;;;;2.80;2.17;;;20.50;95.90;;;;;;4943195;28;20036;-72
2023/08/06 18:30:19;;;;;;;4.72;2.10;;;20.50;96.10;;;;;;4941776;28;20028;-73
2023/08/06 18:32:46;;;;;;;6.07;3.15;;;20.40;95.90;;;;;;4942280;28;20038;-72
2023/08/06 18:35:11;;;;;;;4.88;2.08;;;20.30;96.10;;;;;;4946047;28;20038;-72
2023/08/06 18:37:38;;;;;;;11.98;7.97;;;20.20;96.30;;;;;;4942329;28;20027;-72
2023/08/06 18:40:06;;;;;;;10.48;8.20;;;20.10;96.50;;;;;;4947290;28;20161;-72
2023/08/06 18:42:32;;;;;;;12.40;8.38;;;20.10;96.50;;;;;;4944773;28;20034;-73
2023/08/06 18:44:57;;;;;;;13.73;11.75;;;20.10;96.60;;;;;;4941274;28;20031;-72
2023/08/06 18:47:25;;;;;;;5.57;4.45;;;20.00;96.50;;;;;;4943150;28;20035;-73
2023/08/06 18:49:50;;;;;;;13.48;9.35;;;19.90;96.80;;;;;;4944341;28;20388;-72
2023/08/06 18:54:51;;;;;;;5.85;4.72;;;19.80;97.00;;;;;;5368511;22;20041;-70
2023/08/06 18:57:18;;;;;;;4.57;4.07;;;19.70;97.20;;;;;;5070134;28;20024;-71
2023/08/06 18:59:44;;;;;;;8.02;4.43;;;19.70;97.20;;;;;;5556192;22;20040;-70
2023/08/06 19:02:09;;;;;;;10.80;7.70;;;19.70;97.30;;;;;;5066832;28;20077;-70
2023/08/06 19:04:35;;;;;;;10.05;6.20;;;19.60;97.30;;;;;;5067336;28;20082;-70
2023/08/06 19:07:01;;;;;;;7.30;5.38;;;19.60;97.30;;;;;;5067990;28;20031;-72
2023/08/06 19:09:26;;;;;;;8.73;7.07;;;19.50;97.40;;;;;;5065311;28;20021;-71
2023/08/06 19:11:52;;;;;;;5.20;4.15;;;19.40;97.60;;;;;;5070060;28;20095;-70
2023/08/06 19:14:18;;;;;;;7.10;5.15;;;19.40;97.80;;;;;;5066506;28;20071;-73
2023/08/06 19:16:50;;;;;;;11.15;9.07;;;19.20;98.00;;;;;;5068301;28;20125;-72
2023/08/06 19:19:16;;;;;;;15.30;10.10;;;19.20;98.30;;;;;;5069923;28;20023;-72
2023/08/06 19:21:47;;;;;;;8.60;5.63;;;19.10;98.40;;;;;;5071599;28;20478;-75
2023/08/06 19:24:13;;;;;;;4.80;4.30;;;19.00;98.60;;;;;;5072168;28;20043;-72
2023/08/06 19:26:39;;;;;;;5.13;4.18;;;19.00;98.90;;;;;;5074793;28;20029;-74
2023/08/06 19:29:04;;;;;;;6.90;3.92;;;19.00;99.10;;;;;;5073084;28;20024;-73
2023/08/06 19:31:30;;;;;;;3.45;2.83;;;18.90;98.90;;;;;;5096816;22;20155;-78
2023/08/06 19:33:55;;;;;;;4.10;3.25;;;18.80;99.40;;;;;;5071345;28;20048;-73
2023/08/06 19:36:21;;;;;;;3.97;3.13;;;18.80;99.40;;;;;;5071313;28;20154;-76
2023/08/06 19:38:46;;;;;;;4.07;3.20;;;18.80;99.90;;;;;;5079391;28;20099;-74
2023/08/06 19:41:37;;;;;;;8.05;3.17;;;18.70;99.80;;;;;;5074308;28;20047;-77
2023/08/06 19:44:03;;;;;;;7.05;3.42;;;18.60;99.90;;;;;;5074079;28;20029;-76
2023/08/06 19:46:29;;;;;;;3.72;3.13;;;18.60;99.90;;;;;;5088489;28;20451;-74
2023/08/06 19:48:54;;;;;;;4.22;3.35;;;18.60;99.90;;;;;;5071140;28;20104;-77
2023/08/06 19:51:20;;;;;;;3.25;2.92;;;18.60;99.90;;;;;;5072900;28;20041;-77
2023/08/06 19:53:47;;;;;;;3.30;2.80;;;18.60;99.90;;;;;;5069705;28;20021;-78
2023/08/06 19:56:13;;;;;;;5.43;3.65;;;18.60;99.90;;;;;;5075181;22;20049;-71
2023/08/06 19:58:39;;;;;;;4.38;3.20;;;18.50;99.90;;;;;;5040613;28;20372;-72
2023/08/06 20:01:06;;;;;;;6.32;3.03;;;18.60;99.90;;;;;;5050982;28;20043;-74
2023/08/06 20:03:32;;;;;;;3.58;2.67;;;18.50;99.90;;;;;;5044767;28;20132;-74
2023/08/06 20:06:00;;;;;;;4.35;2.70;;;18.50;99.90;;;;;;5048547;28;20033;-71
2023/08/06 20:08:26;;;;;;;5.38;3.35;;;18.40;99.90;;;;;;5049225;28;20031;-71
2023/08/06 20:10:54;;;;;;;4.25;3.85;;;18.40;99.90;;;;;;5043216;28;20024;-71
2023/08/06 20:13:20;;;;;;;3.42;2.95;;;18.30;99.90;;;;;;5048551;28;20104;-72
2023/08/06 20:15:50;;;;;;;2.63;2.15;;;18.20;99.90;;;;;;5047452;28;20550;-73
2023/08/06 20:18:17;;;;;;;8.73;3.67;;;18.10;99.90;;;;;;5043250;28;20033;-72
2023/08/06 20:20:43;;;;;;;3.95;2.35;;;18.10;99.90;;;;;;5047223;28;20044;-72
2023/08/06 20:23:09;;;;;;;4.65;3.33;;;18.00;99.90;;;;;;5044266;28;20064;-72
2023/08/06 20:25:34;;;;;;;3.65;3.35;;;18.00;99.90;;;;;;5048536;28;20572;-72
2023/08/06 20:28:00;;;;;;;6.25;2.88;;;17.90;99.90;;;;;;5048795;28;20083;-72
2023/08/06 20:30:26;;;;;;;4.97;2.95;;;17.90;99.90;;;;;;5046130;28;20573;-72
2023/08/06 20:32:52;;;;;;;4.78;3.50;;;17.90;99.90;;;;;;5037753;28;20033;-72
2023/08/06 20:35:17;;;;;;;3.40;3.03;;;17.90;99.90;;;;;;5046274;28;20067;-72
2023/08/06 20:37:43;;;;;;;4.45;3.15;;;17.80;99.90;;;;;;5038770;28;20033;-72
2023/08/06 20:40:09;;;;;;;4.60;2.78;;;17.70;99.90;;;;;;5040462;28;20021;-72
2023/08/06 20:42:35;;;;;;;5.78;2.85;;;17.70;99.90;;;;;;5049528;28;20533;-70
2023/08/06 20:45:00;;;;;;;6.93;3.58;;;17.70;99.90;;;;;;5044958;28;20092;-71
2023/08/06 20:47:26;;;;;;;4.65;2.33;;;17.50;99.90;;;;;;5048880;28;20168;-71
2023/08/06 20:49:51;;;;;;;3.22;2.35;;;17.50;99.90;;;;;;5045039;28;20020;-71
2023/08/06 20:52:17;;;;;;;3.58;2.13;;;17.40;99.90;;;;;;5047440;28;20041;-70
2023/08/06 20:54:42;;;;;;;4.93;2.22;;;17.30;99.90;;;;;;5047207;28;20021;-69
2023/08/06 20:57:08;;;;;;;3.83;2.22;;;17.30;99.90;;;;;;5046082;28;20551;-69
2023/08/06 20:59:34;;;;;;;4.18;2.70;;;17.20;99.90;;;;;;5049403;28;20037;-69
2023/08/06 21:01:59;;;;;;;4.50;2.22;;;17.10;99.90;;;;;;5044410;28;20021;-70
2023/08/06 21:04:25;;;;;;;2.63;1.92;;;17.10;99.90;;;;;;5043131;28;20028;-70
2023/08/06 21:06:50;;;;;;;4.40;2.15;;;17.10;99.90;;;;;;5044041;28;20112;-69
2023/08/06 21:09:16;;;;;;;8.30;1.98;;;17.10;99.90;;;;;;5047412;28;20490;-71
2023/08/06 21:11:41;;;;;;;6.95;2.45;;;17.10;99.90;;;;;;5043664;28;20064;-70
2023/08/06 21:14:07;;;;;;;4.70;2.90;;;17.10;99.90;;;;;;5042807;28;20032;-70
2023/08/06 21:16:33;;;;;;;7.22;2.47;;;17.10;99.90;;;;;;5037354;28;20029;-71
2023/08/06 21:18:58;;;;;;;5.22;2.42;;;17.00;99.90;;;;;;5048209;28;20032;-72
2023/08/06 21:21:24;;;;;;;4.00;1.77;;;17.00;99.90;;;;;;5050349;28;20422;-71
2023/08/06 21:23:49;;;;;;;4.35;2.72;;;17.00;99.90;;;;;;5038096;28;20032;-72
2023/08/06 21:26:17;;;;;;;4.05;2.28;;;17.10;99.90;;;;;;5040428;28;20024;-71
2023/08/06 21:28:42;;;;;;;2.90;2.03;;;17.00;99.90;;;;;;5045982;28;20030;-69
2023/08/06 21:31:10;;;;;;;3.75;2.25;;;17.00;99.90;;;;;;5040411;28;20119;-69
2023/08/06 21:33:36;;;;;;;6.25;2.15;;;17.00;99.90;;;;;;5031578;28;20041;-70
2023/08/06 21:36:04;;;;;;;2.85;1.70;;;16.90;99.90;;;;;;5040600;28;20507;-69
2023/08/06 21:38:34;;;;;;;8.02;2.42;;;16.80;99.90;;;;;;5040190;28;20036;-69
2023/08/06 21:41:07;;;;;;;1.92;1.80;;;16.80;99.90;;;;;;5045652;28;20374;-69
2023/08/06 21:43:34;;;;;;;5.07;2.55;;;16.80;99.90;;;;;;5041824;28;20538;-69
2023/08/06 21:46:04;;;;;;;2.58;1.83;;;16.80;99.90;;;;;;5040790;28;20097;-69
2023/08/06 21:48:30;;;;;;;2.58;2.30;;;16.80;99.90;;;;;;5015089;28;20095;-69
2023/08/06 21:51:01;;;;;;;2.95;2.22;;;16.70;99.90;;;;;;5036827;28;20036;-69
2023/08/06 21:53:26;;;;;;;4.47;2.35;;;16.70;99.90;;;;;;5042178;28;20025;-69
2023/08/06 21:55:56;;;;;;;3.15;1.88;;;16.70;99.90;;;;;;5047712;28;20082;-69
2023/08/06 21:58:22;;;;;;;3.28;2.42;;;16.70;99.90;;;;;;5032856;28;20030;-69
2023/08/06 22:00:47;;;;;;;2.83;2.10;;;16.70;99.90;;;;;;5043691;28;20028;-70
2023/08/06 22:03:13;;;;;;;4.60;1.80;;;16.70;99.90;;;;;;5042426;28;20377;-69
2023/08/06 22:05:38;;;;;;;2.67;2.20;;;16.70;99.90;;;;;;5040162;28;20021;-69
2023/08/06 22:08:04;;;;;;;2.45;1.77;;;16.70;99.90;;;;;;5045102;28;20051;-71
2023/08/06 22:10:29;;;;;;;3.67;2.38;;;16.70;99.90;;;;;;5044180;28;20033;-71
2023/08/06 22:12:55;;;;;;;7.28;2.50;;;16.70;99.90;;;;;;5038347;28;20525;-71
2023/08/06 22:15:20;;;;;;;3.38;2.28;;;16.60;99.90;;;;;;5037224;28;20078;-71
2023/08/06 22:17:46;;;;;;;4.68;2.40;;;16.60;99.90;;;;;;5038523;28;20072;-69
2023/08/06 22:20:11;;;;;;;4.72;2.28;;;16.60;99.90;;;;;;5039761;28;20029;-69
2023/08/06 22:22:37;;;;;;;4.22;2.20;;;16.50;99.90;;;;;;5051101;28;20589;-71
2023/08/06 22:25:05;;;;;;;4.72;2.70;;;16.50;99.90;;;;;;5045986;28;20028;-69
2023/08/06 22:27:31;;;;;;;4.90;3.05;;;16.60;99.90;;;;;;5039140;28;20030;-69
2023/08/06 22:29:56;;;;;;;4.13;2.47;;;16.60;99.90;;;;;;5038222;28;20075;-72
2023/08/06 22:32:22;;;;;;;3.85;2.35;;;16.60;99.90;;;;;;5050358;28;20025;-72
2023/08/06 22:34:47;;;;;;;2.88;2.45;;;16.60;99.90;;;;;;5049503;28;20036;-69
2023/08/06 22:37:13;;;;;;;3.75;3.00;;;16.60;99.90;;;;;;5034852;28;20021;-70
2023/08/06 22:39:38;;;;;;;4.00;3.17;;;16.50;99.90;;;;;;5050128;28;20024;-69
2023/08/06 22:42:04;;;;;;;2.70;2.50;;;16.50;99.90;;;;;;5033974;28;20056;-70
2023/08/06 22:44:30;;;;;;;4.30;2.35;;;16.50;99.90;;;;;;5043237;28;20379;-69
2023/08/06 22:46:55;;;;;;;3.70;2.50;;;16.60;99.90;;;;;;5049527;28;20494;-69
2023/08/06 22:49:21;;;;;;;6.30;2.35;;;16.60;99.90;;;;;;5033619;28;20034;-69
2023/08/06 22:51:46;;;;;;;2.55;2.35;;;16.60;99.90;;;;;;5033133;28;20033;-69
2023/08/06 22:54:12;;;;;;;4.00;2.70;;;16.50;99.90;;;;;;5039839;28;20036;-69
2023/08/06 22:56:37;;;;;;;4.65;2.97;;;16.50;99.90;;;;;;5045003;28;20021;-70
2023/08/06 22:59:03;;;;;;;2.72;2.38;;;16.50;99.90;;;;;;5044674;28;20029;-70
2023/08/06 23:01:28;;;;;;;7.85;3.13;;;16.60;99.90;;;;;;5045310;28;20022;-70
2023/08/06 23:03:54;;;;;;;3.92;3.10;;;16.50;99.90;;;;;;5035280;28;20093;-69
2023/08/06 23:06:19;;;;;;;3.95;2.22;;;16.50;99.90;;;;;;5035477;28;20065;-69
2023/08/06 23:08:45;;;;;;;3.40;2.53;;;16.50;99.90;;;;;;5042845;28;20025;-69
2023/08/06 23:11:10;;;;;;;5.78;2.47;;;16.50;99.90;;;;;;5050032;28;20475;-69
2023/08/06 23:13:36;;;;;;;2.95;2.67;;;16.40;99.90;;;;;;5048449;28;20064;-69
2023/08/06 23:16:02;;;;;;;5.68;2.55;;;16.40;99.90;;;;;;5042143;28;20029;-69
2023/08/06 23:18:27;;;;;;;4.53;2.33;;;16.40;99.90;;;;;;5034795;28;20051;-69
2023/08/06 23:20:53;;;;;;;3.65;3.03;;;16.40;99.90;;;;;;5047059;28;20132;-69
2023/08/06 23:23:18;;;;;;;3.78;2.75;;;16.30;99.90;;;;;;5038472;28;20104;-69
2023/08/06 23:25:44;;;;;;;4.13;3.65;;;16.30;99.90;;;;;;5045144;28;20041;-69
2023/08/06 23:28:09;;;;;;;3.20;2.72;;;16.30;99.90;;;;;;5046111;28;20112;-70
2023/08/06 23:30:35;;;;;;;3.00;2.60;;;16.30;99.90;;;;;;5049025;28;20040;-69
2023/08/06 23:33:00;;;;;;;4.60;2.35;;;16.20;99.90;;;;;;5033715;28;20463;-69
2023/08/06 23:35:26;;;;;;;6.65;3.35;;;16.20;99.90;;;;;;5050380;28;20442;-69
2023/08/06 23:37:51;;;;;;;6.45;3.13;;;16.20;99.90;;;;;;5045681;28;20025;-70
2023/08/06 23:40:18;;;;;;;4.60;3.70;;;16.20;99.90;;;;;;5041911;28;20052;-70
2023/08/06 23:42:43;;;;;;;13.10;2.80;;;16.20;99.90;;;;;;5046191;28;20474;-68
2023/08/06 23:45:09;;;;;;;4.43;3.25;;;16.20;99.90;;;;;;5039004;28;20033;-68
2023/08/06 23:47:35;;;;;;;4.07;2.80;;;16.20;99.90;;;;;;5042460;28;20022;-68
2023/08/06 23:50:01;;;;;;;3.67;3.28;;;16.20;99.90;;;;;;5043149;28;20029;-71
2023/08/06 23:52:26;;;;;;;4.13;3.55;;;16.20;99.90;;;;;;5036808;28;20155;-69
2023/08/06 23:54:52;;;;;;;5.88;3.38;;;16.20;99.90;;;;;;5045796;28;20451;-69
2023/08/06 23:57:18;;;;;;;4.50;3.40;;;16.20;99.90;;;;;;5047183;28;20091;-69
2023/08/06 23:59:43;;;;;;;5.50;3.42;;;16.10;99.90;;;;;;5041662;28;20510;-71
